Time;durP1;ratioP1;P1;durP2;ratioP2;P2;SDS_P1;SDS_P2;PMS_P1;PMS_P2;Temp;Humidity;BMP_temperature;BMP_pressure;BME280_temperature;BME280_humidity;BME280_pressure;Samples;Min_cycle;Max_cycle;Signal;HPM_P1;HPM_P2
2021/06/16 00:00:18;;;;;;;;;;;;;;;;;;;;;
2021/06/16 00:06:12;;;;;;;17.53;11.95;;;;;;;17.65;66.75;98869.16;262752;1090;27071;-72
2021/06/16 00:11:19;;;;;;;14.83;11.03;;;;;;;17.64;66.94;98862.14;262864;1089;22793;-73
2021/06/16 00:16:27;;;;;;;14.35;11.55;;;;;;;17.69;67.40;98870.07;262477;1090;24358;-72
2021/06/16 00:21:49;;;;;;;18.15;12.50;;;;;;;17.75;67.78;98868.73;262451;1090;24320;-71
2021/06/16 00:27:20;;;;;;;17.70;12.67;;;;;;;17.82;67.59;98870.90;262230;1090;26481;-71
2021/06/16 00:33:00;;;;;;;15.60;13.00;;;;;;;17.80;67.50;98868.53;262020;1089;22822;-71
2021/06/16 00:38:24;;;;;;;17.90;13.70;;;;;;;17.79;67.29;98872.35;262287;1090;22831;-71
2021/06/16 00:43:54;;;;;;;18.25;12.85;;;;;;;17.81;67.60;98867.41;262555;1090;22850;-71
2021/06/16 00:49:08;;;;;;;17.07;13.83;;;;;;;17.84;67.45;98866.73;262880;1090;22859;-70
2021/06/16 00:54:54;;;;;;;20.38;14.53;;;;;;;17.83;67.65;98853.52;262600;1089;26034;-72
2021/06/16 01:00:17;;;;;;;18.53;13.47;;;;;;;17.73;67.54;98855.52;261984;1090;24493;-73
2021/06/16 01:05:29;;;;;;;17.45;12.50;;;;;;;17.68;67.78;98854.94;262965;1090;22830;-70
2021/06/16 01:17:44;;;;;;;17.25;11.75;;;;;;;17.59;67.92;98858.52;262626;1088;22757;-71
2021/06/16 01:23:11;;;;;;;16.70;11.35;;;;;;;17.55;68.04;98854.11;263141;1089;22803;-72
2021/06/16 01:28:48;;;;;;;16.70;11.70;;;;;;;17.50;67.88;98857.01;262176;1090;22917;-72
2021/06/16 01:33:58;;;;;;;;;;;;;;;17.48;68.06;98849.22;262286;1090;24383;-71
2021/06/16 01:39:16;;;;;;;;;;;;;;;17.41;67.71;98857.09;262629;1088;24240;-72
2021/06/16 01:44:25;;;;;;;18.30;13.50;;;;;;;17.33;67.74;98856.03;262476;1090;21456;-71
2021/06/16 01:55:53;;;;;;;19.80;12.45;;;;;;;17.27;68.03;98852.73;262769;1089;23628;-71
2021/06/16 02:01:11;;;;;;;19.05;13.95;;;;;;;17.28;68.11;98854.33;262969;1089;22875;-72
2021/06/16 02:06:38;;;;;;;;;;;;;;;;;;;;;
2021/06/16 02:11:55;;;;;;;19.15;13.05;;;;;;;17.18;67.50;98853.92;262841;1089;22776;-71
2021/06/16 02:17:11;;;;;;;20.30;13.70;;;;;;;17.08;68.19;98839.68;262641;1089;23221;-70
2021/06/16 02:22:37;;;;;;;20.80;14.00;;;;;;;17.01;68.55;98861.06;262506;1090;24208;-72
2021/06/16 02:28:11;;;;;;;18.50;13.85;;;;;;;16.88;68.19;98849.34;261862;1090;26271;-72
2021/06/16 02:33:26;;;;;;;19.95;13.05;;;;;;;16.72;68.39;98849.11;261869;1089;22782;-71
2021/06/16 02:38:39;;;;;;;16.50;12.70;;;;;;;16.60;68.95;98859.83;262269;1090;22919;-71
2021/06/16 02:44:00;;;;;;;18.10;13.10;;;;;;;16.52;69.33;98866.07;262540;1088;22973;-72
2021/06/16 02:49:41;;;;;;;19.07;12.73;;;;;;;16.41;69.55;98866.45;262971;1090;25870;-72
2021/06/16 02:54:52;;;;;;;20.95;13.05;;;;;;;16.32;69.81;98873.79;262404;1090;22832;-72
2021/06/16 03:00:14;;;;;;;17.75;12.40;;;;;;;16.27;70.13;98867.77;262471;1090;23427;-72
2021/06/16 03:05:41;;;;;;;18.25;11.95;;;;;;;16.24;70.21;98870.02;262473;1090;22776;-71
2021/06/16 03:11:36;;;;;;;16.27;11.43;;;;;;;16.32;70.83;98873.00;262596;1090;23026;-72
2021/06/16 03:23:21;;;;;;;;;;;;;;;16.88;70.62;98870.99;262617;1090;22782;-72
2021/06/16 03:28:46;;;;;;;16.20;11.45;;;;;;;17.22;69.62;98871.90;262447;1090;21537;-71
2021/06/16 03:34:22;;;;;;;17.55;11.65;;;;;;;17.32;68.45;98865.30;262844;1090;25999;-72
2021/06/16 03:39:42;;;;;;;18.85;13.25;;;;;;;17.46;68.43;98875.86;262521;1088;23074;-71
2021/06/16 03:44:50;;;;;;;16.45;12.10;;;;;;;17.90;69.12;98873.52;262838;1090;24365;-71
2021/06/16 03:50:01;;;;;;;18.13;12.80;;;;;;;18.50;68.33;98877.84;262582;1088;26805;-71
2021/06/16 03:55:35;;;;;;;16.30;13.17;;;;;;;19.13;67.85;98885.61;263019;1089;22826;-72
2021/06/16 04:01:07;;;;;;;18.97;13.50;;;;;;;19.77;66.16;98888.58;262785;1089;22943;-71
2021/06/16 04:06:35;;;;;;;;;;;;;;;;;;;;;
2021/06/16 04:12:28;;;;;;;23.47;14.90;;;;;;;20.23;63.50;98897.19;262626;1089;22843;-71
2021/06/16 04:17:59;;;;;;;;;;;;;;;;;;;;;
2021/06/16 04:23:53;;;;;;;;;;;;;;;;;;;;;
2021/06/16 04:29:56;;;;;;;14.97;11.77;;;;;;;19.05;64.81;98910.96;262543;1089;22950;-72
2021/06/16 04:36:22;;;;;;;14.57;10.30;;;;;;;18.76;65.47;98915.46;262681;1090;22815;-71
2021/06/16 04:42:24;;;;;;;16.70;11.80;;;;;;;18.41;66.43;98918.60;262805;1090;23353;-72
2021/06/16 04:48:00;;;;;;;13.13;10.38;;;;;;;18.34;66.93;98907.52;262462;1090;22878;-71
2021/06/16 04:54:01;;;;;;;16.85;11.80;;;;;;;18.44;66.75;98917.95;262800;1090;26296;-72
2021/06/16 04:59:15;;;;;;;14.90;11.83;;;;;;;18.54;66.50;98922.14;262778;1090;22879;-72
2021/06/16 05:04:35;;;;;;;16.40;12.30;;;;;;;18.56;65.90;98914.45;262471;1090;26239;-71
2021/06/16 05:10:59;;;;;;;14.30;12.00;;;;;;;18.61;65.79;98912.30;262879;1090;26744;-72
2021/06/16 05:17:32;;;;;;;;;;;;;;;;;;;;;
2021/06/16 05:23:42;;;;;;;16.20;11.80;;;;;;;18.86;64.89;98917.73;261999;1090;26325;-71
2021/06/16 05:29:01;;;;;;;14.75;11.95;;;;;;;18.97;64.70;98921.60;262971;1089;22792;-72
2021/06/16 05:34:21;;;;;;;13.15;10.53;;;;;;;19.10;64.77;98924.31;262828;1089;22815;-71
2021/06/16 05:39:27;;;;;;;14.23;10.73;;;;;;;19.28;64.61;98922.13;262763;1089;24435;-72
2021/06/16 05:44:37;;;;;;;15.65;12.33;;;;;;;19.46;64.36;98922.63;262960;1090;26600;-72
2021/06/16 05:49:49;;;;;;;16.07;12.73;;;;;;;19.65;64.03;98922.02;262638;1090;22765;-70
2021/06/16 05:54:52;;;;;;;15.40;12.55;;;;;;;19.81;63.39;98938.39;263192;1090;22915;-71
2021/06/16 06:00:01;;;;;;;15.10;11.77;;;;;;;19.94;63.42;98923.63;262857;1090;22811;-71
2021/06/16 06:05:13;;;;;;;15.55;11.85;;;;;;;20.12;63.52;98931.48;263626;1089;22813;-71
2021/06/16 06:10:17;;;;;;;13.85;11.60;;;;;;;20.28;63.00;98929.55;262864;1089;22936;-72
2021/06/16 06:15:24;;;;;;;14.77;12.27;;;;;;;20.36;62.52;98930.53;262601;1089;22943;-71
2021/06/16 06:20:31;;;;;;;17.30;13.73;;;;;;;20.50;62.26;98940.98;262621;1090;22887;-71
2021/06/16 06:25:48;;;;;;;14.65;13.05;;;;;;;20.67;61.88;98939.84;262998;1090;26252;-71
2021/06/16 06:31:12;;;;;;;14.10;11.90;;;;;;;20.88;61.21;98945.03;263296;1090;22938;-71
2021/06/16 06:37:24;;;;;;;11.93;10.17;;;;;;;21.05;60.15;98943.86;263216;1089;22924;-71
2021/06/16 06:43:16;;;;;;;14.78;11.80;;;;;;;21.23;59.52;98943.48;262288;1090;25887;-72
2021/06/16 06:49:04;;;;;;;16.60;12.10;;;;;;;21.41;59.63;98943.88;263416;1088;22792;-71
2021/06/16 06:54:11;;;;;;;13.00;10.18;;;;;;;21.66;59.49;98952.61;263189;1089;23321;-72
2021/06/16 06:59:20;;;;;;;14.73;11.85;;;;;;;21.81;58.85;98940.03;262735;1088;22911;-72
2021/06/16 07:04:50;;;;;;;14.58;12.45;;;;;;;22.00;58.57;98944.69;262656;1090;22817;-70
2021/06/16 07:09:54;;;;;;;15.70;12.60;;;;;;;22.16;57.84;98944.58;262749;1089;22790;-71
2021/06/16 07:14:58;;;;;;;16.00;12.20;;;;;;;22.37;57.52;98941.47;262837;1090;22945;-71
2021/06/16 07:20:16;;;;;;;13.58;11.78;;;;;;;22.58;56.44;98946.53;262995;1090;25370;-71
2021/06/16 07:26:22;;;;;;;15.57;12.97;;;;;;;22.85;56.27;98947.34;263413;1089;23360;-72
2021/06/16 07:32:20;;;;;;;15.60;12.38;;;;;;;23.13;54.86;98939.98;263379;1090;23577;-73
2021/06/16 07:37:24;;;;;;;13.18;11.68;;;;;;;23.36;54.58;98946.14;263317;1089;25355;-71
2021/06/16 07:42:28;;;;;;;15.75;12.13;;;;;;;23.63;53.54;98951.58;263898;1089;22791;-73
2021/06/16 07:47:33;;;;;;;13.70;11.33;;;;;;;23.91;53.22;98944.91;263303;1090;22867;-73
2021/06/16 07:53:00;;;;;;;14.50;11.40;;;;;;;24.11;52.35;98953.70;263220;1089;22825;-72
2021/06/16 07:58:07;;;;;;;;;;;;;;;24.33;51.77;98953.91;263253;1090;22752;-73
2021/06/16 08:03:34;;;;;;;12.78;10.15;;;;;;;24.49;51.53;98953.68;262984;1090;21456;-69
2021/06/16 08:09:16;;;;;;;13.53;10.35;;;;;;;24.65;50.84;98948.77;262928;1089;22844;-72
2021/06/16 08:14:41;;;;;;;12.57;10.03;;;;;;;24.82;50.47;98955.55;262775;1088;22793;-74
2021/06/16 08:20:26;;;;;;;12.43;10.00;;;;;;;25.08;50.06;98965.50;262820;1090;22803;-72
2021/06/16 08:25:41;;;;;;;11.00;9.80;;;;;;;25.28;49.19;98962.48;262887;1090;22779;-71
2021/06/16 08:30:59;;;;;;;13.83;10.70;;;;;;;25.47;48.55;98968.91;262986;1089;22776;-72
2021/06/16 08:42:42;;;;;;;13.83;11.30;;;;;;;25.70;46.71;98961.17;262720;1090;22982;-72
2021/06/16 08:47:58;;;;;;;12.63;11.25;;;;;;;25.75;45.81;98962.75;262605;1088;23712;-74
2021/06/16 08:53:26;;;;;;;12.98;11.68;;;;;;;25.85;46.15;98956.50;263107;1088;22965;-72
2021/06/16 08:58:40;;;;;;;15.63;12.60;;;;;;;26.16;45.95;98954.26;262572;1089;22946;-71
2021/06/16 09:03:54;;;;;;;14.43;11.28;;;;;;;26.40;45.04;98950.00;262873;1088;22896;-71
2021/06/16 09:09:05;;;;;;;13.15;11.08;;;;;;;26.45;44.89;98963.33;263024;1089;24354;-71
2021/06/16 09:14:19;;;;;;;13.85;12.23;;;;;;;26.58;44.65;98965.69;262771;1089;26155;-71
2021/06/16 09:19:25;;;;;;;14.48;12.48;;;;;;;26.67;43.92;98968.04;263117;1089;26258;-72
2021/06/16 09:24:53;;;;;;;10.90;9.80;;;;;;;26.78;43.83;98972.41;263145;1090;23329;-71
2021/06/16 09:29:57;;;;;;;14.73;11.70;;;;;;;27.02;43.51;98970.03;262841;1089;22779;-71
2021/06/16 09:35:24;;;;;;;12.50;10.47;;;;;;;27.18;42.94;98963.33;263150;1088;22794;-71
2021/06/16 09:40:43;;;;;;;12.03;9.95;;;;;;;27.39;42.77;98966.04;262988;1089;22806;-71
2021/06/16 09:45:53;;;;;;;10.03;8.73;;;;;;;27.40;42.24;98956.61;263155;1088;22835;-71
2021/06/16 09:51:25;;;;;;;11.55;8.68;;;;;;;27.68;42.43;98960.45;262711;1089;22863;-70
2021/06/16 09:56:34;;;;;;;8.38;7.48;;;;;;;27.88;41.98;98954.45;262928;1090;22791;-71
2021/06/16 10:02:41;;;;;;;;;;;;;;;;;;;;;
2021/06/16 10:08:24;;;;;;;10.28;9.08;;;;;;;28.20;40.64;98951.55;262282;1090;22807;-70
2021/06/16 10:13:30;;;;;;;10.98;7.88;;;;;;;28.33;41.14;98954.59;263243;1090;22870;-71
2021/06/16 10:18:49;;;;;;;11.23;8.98;;;;;;;28.36;40.65;98959.32;262775;1089;22996;-71
2021/06/16 10:24:49;;;;;;;;;;;;;;;;;;;;;
2021/06/16 10:37:34;;;;;;;10.03;8.95;;;;;;;28.68;39.47;98958.30;263013;1089;22809;-71
2021/06/16 10:43:02;;;;;;;10.23;7.28;;;;;;;28.84;39.60;98960.53;262526;1090;22776;-70
2021/06/16 10:49:01;;;;;;;10.08;7.35;;;;;;;28.79;38.94;98959.02;263107;1089;23279;-71
2021/06/16 10:54:44;;;;;;;8.80;7.98;;;;;;;28.79;38.96;98958.21;263365;1090;22814;-70
2021/06/16 11:00:10;;;;;;;10.30;8.85;;;;;;;28.79;38.77;98953.50;263010;1090;22817;-70
2021/06/16 11:06:01;;;;;;;9.08;8.18;;;;;;;28.99;38.82;98950.17;263072;1090;22827;-70
2021/06/16 11:11:11;;;;;;;12.58;10.23;;;;;;;29.05;37.63;98944.98;263382;1088;25906;-70
2021/06/16 11:16:50;;;;;;;9.38;8.38;;;;;;;29.18;37.98;98941.30;262653;1090;22790;-71
2021/06/16 11:23:18;;;;;;;11.03;8.85;;;;;;;29.14;38.07;98940.55;262782;1089;22846;-69
2021/06/16 11:28:38;;;;;;;9.58;8.50;;;;;;;29.28;37.99;98927.81;262557;1089;24513;-69
2021/06/16 11:33:49;;;;;;;9.70;8.80;;;;;;;29.50;37.85;98934.64;263393;1090;27080;-70
2021/06/16 11:39:04;;;;;;;10.28;9.28;;;;;;;29.69;37.83;98932.45;262497;1088;22818;-70
2021/06/16 11:44:28;;;;;;;9.68;8.78;;;;;;;29.83;37.00;98928.73;262669;1090;23021;-70
2021/06/16 11:49:58;;;;;;;;;;;;;;;;;;;;;
2021/06/16 11:55:34;;;;;;;8.60;7.83;;;;;;;29.49;37.29;98918.50;262893;1090;22863;-71
2021/06/16 12:00:41;;;;;;;9.27;8.37;;;;;;;29.86;36.55;98925.93;262810;1089;22868;-70
2021/06/16 12:05:47;;;;;;;10.10;9.10;;;;;;;30.04;36.62;98911.09;262591;1089;23893;-70
2021/06/16 12:10:57;;;;;;;11.25;10.10;;;;;;;30.26;36.89;98906.00;262481;1090;22819;-70
2021/06/16 12:16:25;;;;;;;9.95;8.95;;;;;;;29.93;36.84;98905.72;262748;1088;22792;-70
2021/06/16 12:21:42;;;;;;;9.58;8.28;;;;;;;29.59;37.60;98914.04;262856;1089;22809;-71
2021/06/16 12:27:11;;;;;;;8.53;7.55;;;;;;;29.29;38.75;98896.28;262619;1090;24345;-70
2021/06/16 12:32:32;;;;;;;9.03;7.73;;;;;;;28.98;39.52;98901.72;262223;1090;22816;-70
2021/06/16 12:37:46;;;;;;;9.28;8.30;;;;;;;28.66;39.80;98900.83;262825;1089;22786;-70
2021/06/16 12:43:21;;;;;;;9.20;7.90;;;;;;;28.39;40.13;98903.41;262397;1090;22786;-70
2021/06/16 12:48:33;;;;;;;10.30;8.60;;;;;;;28.25;40.08;98898.03;263015;1090;22787;-70
2021/06/16 12:53:38;;;;;;;8.93;7.85;;;;;;;28.07;40.17;98893.41;263837;1090;23361;-70
2021/06/16 12:59:12;;;;;;;11.75;8.70;;;;;;;28.03;41.10;98891.88;263017;1089;22868;-70
2021/06/16 13:04:46;;;;;;;8.97;8.07;;;;;;;28.25;40.98;98898.80;262353;1088;24314;-70
2021/06/16 13:15:54;;;;;;;8.73;7.65;;;;;;;28.94;40.64;98884.43;263505;1089;22815;-69
2021/06/16 13:21:21;;;;;;;8.43;7.63;;;;;;;29.27;39.77;98882.91;264676;1089;23658;-69
2021/06/16 13:26:29;;;;;;;9.00;7.18;;;;;;;29.13;39.36;98883.02;263298;1090;24340;-69
2021/06/16 13:31:52;;;;;;;8.50;7.43;;;;;;;28.89;39.12;98884.88;263528;1090;26693;-72
2021/06/16 13:37:56;;;;;;;8.03;7.23;;;;;;;28.70;39.46;98886.26;263087;1089;22797;-69
2021/06/16 13:43:28;;;;;;;8.83;7.28;;;;;;;28.44;39.38;98878.20;263365;1089;22809;-73
2021/06/16 13:49:38;;;;;;;7.90;7.20;;;;;;;28.23;39.27;98881.11;263241;1089;22950;-75
2021/06/16 13:55:21;;;;;;;;;;;;;;;;;;;;;
2021/06/16 14:00:48;;;;;;;8.18;7.38;;;;;;;28.13;39.47;98872.52;263402;1090;22834;-73
2021/06/16 14:06:23;;;;;;;8.40;7.50;;;;;;;28.22;39.50;98866.56;262834;1089;22949;-72
2021/06/16 14:12:27;;;;;;;8.30;7.53;;;;;;;28.48;39.27;98853.34;263709;1089;22812;-71
2021/06/16 14:18:24;;;;;;;;;;;;;;;;;;;;;
2021/06/16 14:24:03;;;;;;;7.85;7.05;;;;;;;29.32;38.21;98848.55;263428;1089;23861;-73
2021/06/16 14:30:27;;;;;;;;;;;;;;;;;;;;;
2021/06/16 14:36:54;;;;;;;;;;;;;;;;;;;;;
2021/06/16 14:42:56;;;;;;;6.35;5.75;;;;;;;30.15;36.52;98844.63;262956;1088;22838;-71
2021/06/16 14:48:28;;;;;;;7.73;6.90;;;;;;;30.28;36.82;98845.59;262388;1088;24050;-72
2021/06/16 14:54:17;;;;;;;7.90;7.10;;;;;;;30.36;36.36;98844.28;262945;1090;24758;-72
2021/06/16 14:59:42;;;;;;;7.70;6.93;;;;;;;30.49;36.71;98840.94;263049;1089;23090;-71
2021/06/16 15:05:15;;;;;;;7.15;6.13;;;;;;;30.36;36.21;98849.00;263475;1090;27243;-73
2021/06/16 15:10:40;;;;;;;8.05;7.15;;;;;;;30.17;37.15;98839.48;263026;1089;22763;-71
2021/06/16 15:15:53;;;;;;;7.65;6.93;;;;;;;29.95;37.43;98836.27;263066;1089;27596;-73
2021/06/16 15:21:39;;;;;;;9.10;7.70;;;;;;;29.47;37.53;98846.41;263051;1089;24477;-72
2021/06/16 15:27:10;;;;;;;8.28;7.48;;;;;;;29.09;38.65;98847.23;262746;1090;22626;-72
2021/06/16 15:32:31;;;;;;;10.03;8.00;;;;;;;29.01;39.31;98841.01;263338;1090;22806;-72
2021/06/16 15:38:50;;;;;;;8.53;7.35;;;;;;;29.04;39.44;98836.65;263002;1090;22761;-73
2021/06/16 15:45:16;;;;;;;10.00;7.80;;;;;;;29.16;39.34;98843.61;263051;1090;22944;-73
2021/06/16 15:50:23;;;;;;;8.18;7.28;;;;;;;29.13;39.33;98849.93;262741;1090;22815;-72
2021/06/16 15:56:00;;;;;;;;;;;;;;;;;;;;;
2021/06/16 16:01:08;;;;;;;8.70;7.88;;;;;;;29.07;39.40;98838.58;263096;1089;24541;-72
2021/06/16 16:06:30;;;;;;;8.80;7.78;;;;;;;29.12;39.29;98842.88;263313;1090;22863;-73
2021/06/16 16:12:28;;;;;;;;;;;;;;;;;;;;;
2021/06/16 16:18:27;;;;;;;7.53;6.80;;;;;;;29.14;38.92;98841.27;263225;1088;22788;-71
2021/06/16 16:30:51;;;;;;;8.40;7.60;;;;;;;29.01;39.73;98837.48;263311;1089;21456;-73
2021/06/16 16:35:56;;;;;;;7.93;7.23;;;;;;;28.91;39.39;98838.39;262764;1089;22824;-72
2021/06/16 16:41:20;;;;;;;8.10;7.30;;;;;;;28.84;38.91;98842.77;263662;1090;25793;-72
2021/06/16 16:46:36;;;;;;;8.67;7.53;;;;;;;28.81;39.15;98840.84;263671;1090;22812;-73
2021/06/16 16:51:56;;;;;;;9.47;8.53;;;;;;;28.75;39.03;98839.74;263629;1088;22789;-73
2021/06/16 16:57:39;;;;;;;8.48;7.50;;;;;;;28.66;38.80;98840.20;263245;1089;22850;-73
2021/06/16 17:03:13;;;;;;;8.03;7.00;;;;;;;28.51;38.55;98842.31;263611;1090;22802;-72
2021/06/16 17:08:23;;;;;;;8.25;7.45;;;;;;;29.04;39.17;98835.88;262807;1090;22745;-71
2021/06/16 17:13:35;;;;;;;7.93;7.23;;;;;;;29.85;39.25;98836.01;263819;1089;22936;-73
2021/06/16 17:18:49;;;;;;;7.48;6.75;;;;;;;30.49;38.07;98838.95;263275;1089;23953;-73
2021/06/16 17:23:53;;;;;;;7.68;6.88;;;;;;;30.70;37.63;98831.48;263356;1090;24865;-73
2021/06/16 17:29:05;;;;;;;8.60;7.30;;;;;;;31.10;37.88;98839.02;263525;1090;22809;-71
2021/06/16 17:34:13;;;;;;;6.80;6.20;;;;;;;31.25;36.91;98843.05;263635;1089;27539;-72
2021/06/16 17:39:47;;;;;;;7.63;7.08;;;;;;;30.70;37.23;98845.30;262523;1089;22944;-73
2021/06/16 17:44:54;;;;;;;7.60;6.90;;;;;;;29.91;37.35;98849.34;262842;1088;22906;-71
2021/06/16 17:50:20;;;;;;;7.63;6.93;;;;;;;29.03;38.34;98846.11;262635;1090;23260;-71
2021/06/16 17:56:06;;;;;;;8.20;6.88;;;;;;;28.28;39.40;98851.16;263032;1089;25793;-72
2021/06/16 18:01:40;;;;;;;8.38;7.58;;;;;;;27.54;40.35;98851.24;262703;1089;22940;-72
2021/06/16 18:06:47;;;;;;;8.43;7.50;;;;;;;27.03;41.32;98853.41;262986;1089;22978;-73
2021/06/16 18:11:51;;;;;;;8.50;7.55;;;;;;;26.61;42.19;98857.77;263433;1090;24333;-73
2021/06/16 18:17:01;;;;;;;10.15;8.25;;;;;;;26.18;42.89;98855.84;263267;1088;22886;-71
2021/06/16 18:22:10;;;;;;;9.80;8.40;;;;;;;25.78;43.78;98863.20;263132;1090;24330;-73
2021/06/16 18:27:20;;;;;;;9.60;8.50;;;;;;;25.42;44.47;98869.38;262217;1090;22821;-71
2021/06/16 18:32:33;;;;;;;9.05;8.28;;;;;;;25.07;45.46;98873.50;262939;1088;22819;-73
2021/06/16 18:38:18;;;;;;;10.03;7.90;;;;;;;24.72;45.79;98866.66;262671;1089;22902;-72
2021/06/16 18:43:46;;;;;;;11.48;7.18;;;;;;;24.37;46.67;98867.94;262801;1090;22857;-72
2021/06/16 18:49:40;;;;;;;;;;;;;;;;;;;;;
2021/06/16 18:55:08;;;;;;;11.37;7.27;;;;;;;23.72;47.66;98872.75;262995;1090;22797;-72
2021/06/16 19:00:41;;;;;;;10.55;8.78;;;;;;;23.38;48.92;98869.27;262857;1090;22943;-72
2021/06/16 19:06:00;;;;;;;9.15;8.15;;;;;;;23.03;49.90;98871.13;262007;1089;22934;-74
2021/06/16 19:11:12;;;;;;;10.30;8.90;;;;;;;22.74;50.29;98875.39;262527;1090;23237;-73
2021/06/16 19:16:28;;;;;;;12.28;8.55;;;;;;;22.48;50.96;98878.89;262448;1090;22837;-74
2021/06/16 19:21:56;;;;;;;11.23;8.17;;;;;;;22.20;51.48;98877.23;261976;1088;22815;-71
2021/06/16 19:27:19;;;;;;;11.05;8.23;;;;;;;21.98;52.15;98890.51;262502;1090;22793;-72
2021/06/16 19:33:03;;;;;;;9.88;7.68;;;;;;;21.76;52.63;98900.22;262411;1089;22880;-72
2021/06/16 19:38:45;;;;;;;12.23;8.00;;;;;;;21.57;52.80;98886.61;261929;1090;22884;-72
2021/06/16 19:43:58;;;;;;;10.73;7.95;;;;;;;21.40;53.07;98890.52;262043;1090;22886;-74
2021/06/16 19:49:11;;;;;;;9.63;7.70;;;;;;;21.27;54.14;98890.66;262781;1090;22812;-73
2021/06/16 19:54:40;;;;;;;8.90;7.90;;;;;;;21.15;54.33;98888.05;261986;1090;24384;-72
2021/06/16 19:59:44;;;;;;;13.08;9.10;;;;;;;21.05;54.48;98894.06;261881;1088;23025;-73
2021/06/16 20:05:09;;;;;;;13.45;9.53;;;;;;;20.94;55.19;98904.71;262076;1090;22774;-72
2021/06/16 20:10:31;;;;;;;14.00;9.10;;;;;;;20.81;55.55;98898.59;261897;1090;22843;-72
2021/06/16 20:16:20;;;;;;;10.30;9.10;;;;;;;20.67;55.71;98912.63;261917;1090;22869;-73
2021/06/16 20:21:48;;;;;;;10.50;9.00;;;;;;;20.52;56.73;98916.92;261978;1089;25983;-73
2021/06/16 20:27:08;;;;;;;11.78;9.18;;;;;;;20.44;56.72;98926.05;261983;1090;25913;-72
2021/06/16 20:32:35;;;;;;;12.38;9.20;;;;;;;20.35;57.08;98916.13;262139;1090;22800;-74
2021/06/16 20:37:46;;;;;;;9.93;9.00;;;;;;;20.26;57.33;98912.80;262114;1090;25880;-74
2021/06/16 20:42:53;;;;;;;12.38;9.70;;;;;;;20.16;57.83;98918.73;262128;1090;22789;-73
2021/06/16 20:48:01;;;;;;;11.05;9.60;;;;;;;20.04;57.74;98924.27;262169;1089;22862;-73
2021/06/16 20:53:10;;;;;;;12.03;8.80;;;;;;;19.91;58.13;98921.60;262697;1090;22796;-72
2021/06/16 20:58:17;;;;;;;10.53;8.95;;;;;;;19.81;58.64;98932.95;263000;1089;22816;-73
2021/06/16 21:03:21;;;;;;;16.63;10.13;;;;;;;19.71;59.06;98930.71;262216;1089;22882;-74
2021/06/16 21:08:36;;;;;;;11.50;9.50;;;;;;;19.63;59.23;98937.89;262516;1089;22947;-72
2021/06/16 21:14:19;;;;;;;;;;;;;;;;;;;;;
2021/06/16 21:19:25;;;;;;;15.53;12.03;;;;;;;19.37;59.83;98947.22;262883;1089;22866;-72
2021/06/16 21:24:52;;;;;;;24.33;14.83;;;;;;;19.31;60.61;98949.38;262318;1090;22821;-72
2021/06/16 21:30:00;;;;;;;;;;;;;;;19.26;60.81;98946.11;262785;1089;22779;-72
2021/06/16 21:36:02;;;;;;;14.43;11.13;;;;;;;19.18;61.09;98949.73;261889;1090;21575;-73
2021/06/16 21:41:22;;;;;;;13.70;9.40;;;;;;;19.12;61.23;98951.89;262782;1090;23229;-73
2021/06/16 21:46:31;;;;;;;17.15;8.80;;;;;;;19.08;61.44;98942.84;262331;1090;22880;-72
2021/06/16 21:51:54;;;;;;;13.40;9.25;;;;;;;19.06;61.92;98950.56;261949;1090;26303;-73
2021/06/16 21:57:27;;;;;;;12.00;9.40;;;;;;;18.98;62.03;98944.91;262844;1088;22839;-72
2021/06/16 22:03:00;;;;;;;;;;;;;;;;;;;;;
2021/06/16 22:09:02;;;;;;;;;;;;;;;;;;;;;
2021/06/16 22:15:12;;;;;;;13.15;10.20;;;;;;;18.64;62.91;98951.53;262317;1089;24242;-71
2021/06/16 22:21:40;;;;;;;11.85;10.40;;;;;;;18.52;63.06;98954.23;262418;1090;22905;-73
2021/06/16 22:27:28;;;;;;;12.05;10.75;;;;;;;18.39;63.53;98945.28;262132;1090;22801;-73
2021/06/16 22:33:17;;;;;;;;;;;;;;;;;;;;;
2021/06/16 22:39:00;;;;;;;13.00;10.00;;;;;;;18.23;64.26;98948.64;262024;1090;27560;-73
2021/06/16 22:44:40;;;;;;;13.45;10.50;;;;;;;18.19;64.60;98949.63;262831;1088;22818;-72
2021/06/16 22:50:32;;;;;;;;;;;;;;;;;;;;;
2021/06/16 23:02:55;;;;;;;13.80;10.40;;;;;;;17.88;65.28;98942.72;262646;1090;22832;-73
2021/06/16 23:09:09;;;;;;;15.95;11.90;;;;;;;17.85;65.69;98946.09;262681;1089;25945;-72
2021/06/16 23:15:40;;;;;;;14.95;11.70;;;;;;;17.78;65.92;98943.91;262729;1090;27041;-73
2021/06/16 23:28:18;;;;;;;14.00;10.80;;;;;;;17.66;66.62;98950.08;261957;1090;22818;-72
2021/06/16 23:34:19;;;;;;;18.10;11.25;;;;;;;17.59;66.44;98939.77;262733;1090;22802;-73
2021/06/16 23:40:09;;;;;;;12.60;10.80;;;;;;;17.52;66.75;98946.86;262694;1090;23760;-72
2021/06/16 23:45:31;;;;;;;11.70;9.10;;;;;;;17.43;66.91;98944.19;262974;1089;22870;-73
2021/06/16 23:50:55;;;;;;;10.10;8.60;;;;;;;17.37;67.12;98942.81;263030;1088;22858;-72
2021/06/16 23:56:10;;;;;;;15.40;11.00;;;;;;;17.31;67.45;98939.51;262586;1090;22785;-72
